createdAt,value
2016-09-03T00:00:35.157Z,16.7
2016-09-03T00:01:35.134Z,16.71
2016-09-03T00:02:35.134Z,16.71
2016-09-03T00:03:35.144Z,16.7
2016-09-03T00:04:35.134Z,16.73
2016-09-03T00:05:35.127Z,16.73
2016-09-03T00:06:35.842Z,16.79
2016-09-03T00:07:35.140Z,16.79
2016-09-03T00:08:35.135Z,16.89
2016-09-03T00:09:35.114Z,16.85
2016-09-03T00:10:35.143Z,16.82
2016-09-03T00:11:35.116Z,16.81
2016-09-03T00:12:35.132Z,16.81
2016-09-03T00:13:35.110Z,16.88
2016-09-03T00:14:35.106Z,16.88
2016-09-03T00:15:35.112Z,16.88
2016-09-03T00:16:35.348Z,16.91
2016-09-03T00:17:35.090Z,16.98
2016-09-03T00:19:35.778Z,16.86
2016-09-03T00:20:35.089Z,16.91
2016-09-03T00:21:35.118Z,16.97
2016-09-03T00:22:35.088Z,16.89
2016-09-03T00:23:35.132Z,16.97
2016-09-03T00:24:35.093Z,16.94
2016-09-03T00:25:36.287Z,16.94
2016-09-03T00:26:36.040Z,16.91
2016-09-03T00:27:35.064Z,17
2016-09-03T00:28:35.829Z,16.91
2016-09-03T00:29:36.019Z,16.91
2016-09-03T00:30:35.185Z,16.93
2016-09-03T00:31:35.077Z,16.91
2016-09-03T00:32:35.052Z,17
2016-09-03T00:33:35.063Z,16.96
2016-09-03T00:34:35.046Z,16.98
2016-09-03T00:35:35.043Z,16.94
2016-09-03T00:36:35.039Z,16.89
2016-09-03T00:37:35.056Z,16.93
2016-09-03T00:38:35.064Z,16.93
2016-09-03T00:39:35.043Z,16.89
2016-09-03T00:40:35.040Z,16.91
2016-09-03T00:41:35.042Z,16.94
2016-09-03T00:42:35.039Z,16.94
2016-09-03T00:43:35.727Z,16.89
2016-09-03T00:44:35.076Z,16.96
2016-09-03T00:45:35.020Z,16.85
2016-09-03T00:46:35.015Z,16.82
2016-09-03T00:47:35.015Z,16.88
2016-09-03T00:48:35.039Z,16.85
2016-09-03T00:49:35.009Z,16.93
2016-09-03T00:50:35.033Z,16.93
2016-09-03T00:51:35.006Z,16.91
2016-09-03T00:52:35.019Z,16.89
2016-09-03T00:53:34.993Z,16.89
2016-09-03T00:54:35.003Z,16.96
2016-09-03T00:55:35.007Z,16.94
2016-09-03T00:56:35.000Z,16.94
2016-09-03T00:57:34.986Z,16.96
2016-09-03T00:58:34.995Z,17
2016-09-03T00:59:34.989Z,17
2016-09-03T01:00:35.006Z,16.98
2016-09-03T01:01:34.976Z,17
2016-09-03T01:02:35.005Z,17.03
2016-09-03T01:03:34.975Z,17.04
2016-09-03T01:04:34.976Z,17.07
2016-09-03T01:05:34.973Z,17.06
2016-09-03T01:06:34.971Z,17.08
2016-09-03T01:07:34.955Z,17.06
2016-09-03T01:08:36.246Z,17.14
2016-09-03T01:09:35.405Z,17.06
2016-09-03T01:10:36.559Z,17.08
2016-09-03T01:11:34.960Z,17.12
2016-09-03T01:12:34.946Z,17.11
2016-09-03T01:13:35.412Z,17.03
2016-09-03T01:14:34.939Z,17.22
2016-09-03T01:15:34.951Z,17.03
2016-09-03T01:16:34.959Z,17.08
2016-09-03T01:17:35.870Z,17.14
2016-09-03T01:18:35.308Z,17.15
2016-09-03T01:19:34.925Z,17.12
2016-09-03T01:20:34.926Z,17.07
2016-09-03T01:21:34.924Z,17.08
2016-09-03T01:22:34.937Z,17.12
2016-09-03T01:23:35.275Z,17.21
2016-09-03T01:24:34.925Z,17.21
2016-09-03T01:25:34.923Z,17.15
2016-09-03T01:26:34.933Z,17.14
2016-09-03T01:27:34.925Z,17.12
2016-09-03T01:28:34.918Z,17.12
2016-09-03T01:29:34.899Z,17.22
2016-09-03T01:30:34.917Z,17.14
2016-09-03T01:31:34.903Z,17.22
2016-09-03T01:32:34.921Z,17.19
2016-09-03T01:33:34.897Z,17.16
2016-09-03T01:34:36.035Z,17.15
2016-09-03T01:35:35.938Z,17.12
2016-09-03T01:37:34.893Z,17.11
2016-09-03T01:38:34.898Z,17.14
2016-09-03T01:39:34.897Z,17.18
2016-09-03T01:40:34.884Z,17.12
2016-09-03T01:41:34.872Z,17.08
2016-09-03T01:42:35.566Z,17.11
2016-09-03T01:43:34.984Z,17.15
2016-09-03T01:44:35.572Z,17.16
2016-09-03T01:45:34.872Z,17.16
2016-09-03T01:46:34.859Z,17.11
2016-09-03T01:47:35.153Z,17.16
2016-09-03T01:48:34.854Z,17.12
2016-09-03T01:49:34.861Z,17.11
2016-09-03T01:50:34.852Z,17.15
2016-09-03T01:51:34.841Z,17.12
2016-09-03T01:52:34.838Z,17.23
2016-09-03T01:53:34.840Z,17.19
2016-09-03T01:54:34.836Z,17.22
2016-09-03T01:55:34.860Z,17.25
2016-09-03T01:56:34.831Z,17.26
2016-09-03T01:57:34.824Z,17.25
2016-09-03T01:58:34.822Z,17.33
2016-09-03T01:59:34.837Z,17.34
2016-09-03T02:00:34.816Z,17.33
2016-09-03T02:01:34.826Z,17.33
2016-09-03T02:02:34.822Z,17.34
2016-09-03T02:03:34.826Z,17.3
2016-09-03T02:04:34.810Z,17.25
2016-09-03T02:05:34.800Z,17.28
2016-09-03T02:06:34.802Z,17.26
2016-09-03T02:07:34.797Z,17.26
2016-09-03T02:08:34.824Z,17.26
2016-09-03T02:09:34.818Z,17.33
2016-09-03T02:10:34.808Z,17.37
2016-09-03T02:11:34.792Z,17.33
2016-09-03T02:12:34.805Z,17.26
2016-09-03T02:13:34.782Z,17.34
2016-09-03T02:14:34.800Z,17.41
2016-09-03T02:15:34.791Z,17.26
2016-09-03T02:16:34.775Z,17.33
2016-09-03T02:17:34.786Z,17.38
2016-09-03T02:18:34.774Z,17.3
2016-09-03T02:19:34.786Z,17.36
2016-09-03T02:20:34.774Z,17.38
2016-09-03T02:21:34.776Z,17.38
2016-09-03T02:22:34.763Z,17.38
2016-09-03T02:23:34.777Z,17.4
2016-09-03T02:24:34.777Z,17.37
2016-09-03T02:25:34.766Z,17.36
2016-09-03T02:26:35.424Z,17.36
2016-09-03T02:27:34.878Z,17.34
2016-09-03T02:28:36.204Z,17.28
2016-09-03T02:29:34.743Z,17.33
2016-09-03T02:30:36.331Z,17.31
2016-09-03T02:31:34.750Z,17.4
2016-09-03T02:32:34.786Z,17.38
2016-09-03T02:33:34.745Z,17.33
2016-09-03T02:34:34.730Z,17.37
2016-09-03T02:35:34.980Z,17.38
2016-09-03T02:36:34.867Z,17.4
2016-09-03T02:37:34.731Z,17.34
2016-09-03T02:38:34.815Z,17.38
2016-09-03T02:39:35.053Z,17.41
2016-09-03T02:40:34.838Z,17.41
2016-09-03T02:41:34.720Z,17.43
2016-09-03T02:42:34.721Z,17.4
2016-09-03T02:43:34.711Z,17.44
2016-09-03T02:44:34.713Z,17.38
2016-09-03T02:45:34.715Z,17.43
2016-09-03T02:46:34.713Z,17.43
2016-09-03T02:47:34.711Z,17.4
2016-09-03T02:48:34.703Z,17.51
2016-09-03T02:49:34.698Z,17.49
2016-09-03T02:50:34.695Z,17.49
2016-09-03T02:51:34.702Z,17.49
2016-09-03T02:52:35.956Z,17.49
2016-09-03T02:53:34.700Z,17.54
2016-09-03T02:54:34.694Z,17.52
2016-09-03T02:55:35.290Z,17.58
2016-09-03T02:56:34.720Z,17.59
2016-09-03T02:57:35.795Z,17.59
2016-09-03T02:58:34.832Z,17.59
2016-09-03T02:59:34.671Z,17.59
2016-09-03T03:00:34.678Z,17.59
2016-09-03T03:01:34.876Z,17.64
2016-09-03T03:02:35.017Z,17.66
2016-09-03T03:03:34.826Z,17.54
2016-09-03T03:04:34.655Z,17.64
2016-09-03T03:05:34.656Z,17.58
2016-09-03T03:06:34.674Z,17.64
2016-09-03T03:07:34.660Z,17.66
2016-09-03T03:08:34.684Z,17.64
2016-09-03T03:09:34.643Z,17.7
2016-09-03T03:10:34.656Z,17.64
2016-09-03T03:11:34.643Z,17.72
2016-09-03T03:12:34.642Z,17.66
2016-09-03T03:13:34.664Z,17.64
2016-09-03T03:14:34.635Z,17.72
2016-09-03T03:15:34.636Z,17.72
2016-09-03T03:16:34.643Z,17.68
2016-09-03T03:17:34.637Z,17.64
2016-09-03T03:18:34.630Z,17.66
2016-09-03T03:19:34.640Z,17.68
2016-09-03T03:20:34.623Z,17.72
2016-09-03T03:21:34.629Z,17.72
2016-09-03T03:22:34.617Z,17.68
2016-09-03T03:23:34.611Z,17.71
2016-09-03T03:24:34.622Z,17.64
2016-09-03T03:25:34.615Z,17.71
2016-09-03T03:26:34.612Z,17.7
2016-09-03T03:27:34.633Z,17.64
2016-09-03T03:28:34.607Z,17.75
2016-09-03T03:29:34.606Z,17.75
2016-09-03T03:30:34.600Z,17.74
2016-09-03T03:31:34.618Z,17.74
2016-09-03T03:32:34.596Z,17.66
2016-09-03T03:33:34.598Z,17.74
2016-09-03T03:34:34.619Z,17.63
2016-09-03T03:35:34.598Z,17.68
2016-09-03T03:36:34.587Z,17.62
2016-09-03T03:37:34.591Z,17.74
2016-09-03T03:38:34.582Z,17.7
2016-09-03T03:39:34.572Z,17.68
2016-09-03T03:40:34.572Z,17.62
2016-09-03T03:41:35.263Z,17.64
2016-09-03T03:42:34.584Z,17.59
2016-09-03T03:43:34.573Z,17.55
2016-09-03T03:44:35.535Z,17.56
2016-09-03T03:45:35.368Z,17.58
2016-09-03T03:46:35.038Z,17.49
2016-09-03T03:47:35.393Z,17.62
2016-09-03T03:48:34.551Z,17.54
2016-09-03T03:49:35.508Z,17.56
2016-09-03T03:50:34.558Z,17.56
2016-09-03T03:51:34.546Z,17.56
2016-09-03T03:52:34.561Z,17.58
2016-09-03T03:54:37.090Z,17.59
2016-09-03T03:55:35.522Z,17.56
2016-09-03T03:56:34.551Z,17.55
2016-09-03T03:57:34.746Z,17.52
2016-09-03T03:58:34.797Z,17.54
2016-09-03T03:59:34.544Z,17.51
2016-09-03T04:00:34.726Z,17.49
2016-09-03T04:01:34.523Z,17.56
2016-09-03T04:02:34.520Z,17.55
2016-09-03T04:03:34.517Z,17.51
2016-09-03T04:04:34.534Z,17.52
2016-09-03T04:05:34.531Z,17.46
2016-09-03T04:06:34.533Z,17.56
2016-09-03T04:07:34.512Z,17.48
2016-09-03T04:08:35.211Z,17.41
2016-09-03T04:09:34.506Z,17.52
2016-09-03T04:10:35.709Z,17.49
2016-09-03T04:12:49.567Z,17.41
2016-09-03T04:13:34.512Z,17.52
2016-09-03T04:14:34.846Z,17.49
2016-09-03T04:15:34.857Z,17.56
2016-09-03T04:16:34.485Z,17.56
2016-09-03T04:17:34.513Z,17.52
2016-09-03T04:18:34.488Z,17.4
2016-09-03T04:19:34.644Z,17.55
2016-09-03T04:20:36.230Z,17.44
2016-09-03T04:21:34.475Z,17.51
2016-09-03T04:22:35.060Z,17.48
2016-09-03T04:23:34.481Z,17.58
2016-09-03T04:24:34.475Z,17.56
2016-09-03T04:25:34.488Z,17.52
2016-09-03T04:26:34.465Z,17.56
2016-09-03T04:27:34.468Z,17.52
2016-09-03T04:28:34.461Z,17.52
2016-09-03T04:29:34.481Z,17.55
2016-09-03T04:30:34.450Z,17.55
2016-09-03T04:31:34.469Z,17.55
2016-09-03T04:32:34.453Z,17.56
2016-09-03T04:33:34.452Z,17.62
2016-09-03T04:34:34.469Z,17.66
2016-09-03T04:35:34.450Z,17.62
2016-09-03T04:36:34.441Z,17.62
2016-09-03T04:37:34.438Z,17.56
2016-09-03T04:38:34.431Z,17.59
2016-09-03T04:39:34.439Z,17.59
2016-09-03T04:40:34.434Z,17.62
2016-09-03T04:41:34.432Z,17.66
2016-09-03T04:42:34.442Z,17.63
2016-09-03T04:43:34.424Z,17.71
2016-09-03T04:44:34.438Z,17.66
2016-09-03T04:45:34.469Z,17.7
2016-09-03T04:46:34.430Z,17.71
2016-09-03T04:47:34.411Z,17.63
2016-09-03T04:48:34.431Z,17.66
2016-09-03T04:49:34.407Z,17.71
2016-09-03T04:50:34.432Z,17.75
2016-09-03T04:51:34.404Z,17.78
2016-09-03T04:52:34.415Z,17.84
2016-09-03T04:53:34.402Z,17.78
2016-09-03T04:54:34.402Z,17.87
2016-09-03T04:55:34.403Z,17.84
2016-09-03T04:56:34.423Z,17.82
2016-09-03T04:57:34.397Z,17.84
2016-09-03T04:58:34.415Z,17.77
2016-09-03T04:59:34.390Z,17.86
2016-09-03T05:00:34.390Z,17.92
2016-09-03T05:01:34.380Z,17.93
2016-09-03T05:03:34.371Z,18.03
2016-09-03T05:04:34.380Z,18.07
2016-09-03T05:05:35.073Z,18.03
2016-09-03T05:06:34.371Z,18.14
2016-09-03T05:07:34.371Z,18.12
2016-09-03T05:08:34.815Z,18.14
2016-09-03T05:09:34.376Z,18.14
2016-09-03T05:10:34.362Z,18.17
2016-09-03T05:11:35.574Z,18.18
2016-09-03T05:12:35.756Z,18.23
2016-09-03T05:13:34.495Z,18.27
2016-09-03T05:14:36.444Z,18.18
2016-09-03T05:15:34.373Z,18.32
2016-09-03T05:16:34.572Z,18.35
2016-09-03T05:17:34.342Z,18.29
2016-09-03T05:18:34.363Z,18.3
2016-09-03T05:19:34.351Z,18.36
2016-09-03T05:20:34.342Z,18.41
2016-09-03T05:21:35.061Z,18.42
2016-09-03T05:22:34.337Z,18.41
2016-09-03T05:23:34.350Z,18.54
2016-09-03T05:24:34.338Z,18.55
2016-09-03T05:25:34.325Z,18.52
2016-09-03T05:26:34.340Z,18.55
2016-09-03T05:27:34.342Z,18.69
2016-09-03T05:28:49.242Z,18.8
2016-09-03T05:29:35.026Z,18.73
2016-09-03T05:30:34.335Z,18.81
2016-09-03T05:31:34.667Z,18.8
2016-09-03T05:32:34.339Z,18.92
2016-09-03T05:33:34.819Z,18.9
2016-09-03T05:34:34.312Z,19.04
2016-09-03T05:35:34.312Z,19.06
2016-09-03T05:36:34.340Z,19.1
2016-09-03T05:37:34.712Z,19.14
2016-09-03T05:38:34.466Z,19.25
2016-09-03T05:39:34.656Z,19.32
2016-09-03T05:40:34.379Z,19.36
2016-09-03T05:41:34.310Z,19.46
2016-09-03T05:42:34.319Z,19.5
2016-09-03T05:43:34.302Z,19.54
2016-09-03T05:44:34.302Z,19.59
2016-09-03T05:45:34.400Z,19.76
2016-09-03T05:46:34.318Z,19.78
2016-09-03T05:47:34.295Z,19.86
2016-09-03T05:48:34.298Z,19.88
2016-09-03T05:49:34.292Z,19.95
2016-09-03T05:50:34.304Z,19.95
2016-09-03T05:51:34.297Z,19.91
2016-09-03T05:52:34.309Z,19.91
2016-09-03T05:53:34.294Z,20.02
2016-09-03T05:54:34.300Z,20.08
2016-09-03T05:55:34.290Z,20.24
2016-09-03T05:56:34.295Z,20.17
2016-09-03T05:57:34.290Z,20.24
2016-09-03T05:58:34.284Z,20.35
2016-09-03T05:59:34.292Z,20.39
2016-09-03T06:00:34.325Z,20.36
2016-09-03T06:01:34.293Z,20.54
2016-09-03T06:02:34.292Z,20.64
2016-09-03T06:03:34.998Z,20.66
2016-09-03T06:04:34.288Z,20.73
2016-09-03T06:05:34.280Z,20.72
2016-09-03T06:06:34.283Z,20.79
2016-09-03T06:07:34.281Z,20.76
2016-09-03T06:08:34.287Z,20.76
2016-09-03T06:09:34.282Z,20.87
2016-09-03T06:10:34.297Z,20.97
2016-09-03T06:11:34.282Z,21.03
2016-09-03T06:12:34.286Z,21.07
2016-09-03T06:13:34.284Z,21.14
2016-09-03T06:14:34.284Z,21.21
2016-09-03T06:15:34.285Z,21.19
2016-09-03T06:16:34.309Z,21.27
2016-09-03T06:17:34.307Z,21.38
2016-09-03T06:18:34.291Z,21.46
2016-09-03T06:19:34.285Z,21.49
2016-09-03T06:20:37.304Z,21.58
2016-09-03T06:22:34.386Z,21.61
2016-09-03T06:23:36.085Z,21.71
2016-09-03T06:24:34.292Z,21.72
2016-09-03T06:25:34.299Z,21.84
2016-09-03T06:26:34.290Z,22.05
2016-09-03T06:27:34.303Z,22.12
2016-09-03T06:28:34.293Z,22.3
2016-09-03T06:29:35.088Z,22.51
2016-09-03T06:30:35.699Z,22.7
2016-09-03T06:31:34.876Z,22.88
2016-09-03T06:32:34.295Z,23.07
2016-09-03T06:33:35.033Z,23.23
2016-09-03T06:34:35.591Z,23.46
2016-09-03T06:35:34.309Z,23.57
2016-09-03T06:36:34.320Z,23.76
2016-09-03T06:37:34.334Z,23.95
2016-09-03T06:38:34.314Z,24.2
2016-09-03T06:39:34.318Z,24.4
2016-09-03T06:40:34.321Z,24.61
2016-09-03T06:41:34.349Z,24.88
2016-09-03T06:42:34.331Z,25.05
2016-09-03T06:43:34.348Z,25.36
2016-09-03T06:44:34.344Z,25.61
2016-09-03T06:45:34.373Z,25.8
2016-09-03T06:46:49.925Z,26.13
2016-09-03T06:47:34.504Z,26.39
2016-09-03T06:48:34.886Z,26.62
2016-09-03T06:49:34.430Z,26.89
2016-09-03T06:50:34.387Z,27.09
2016-09-03T06:51:34.787Z,27.4
2016-09-03T06:52:34.484Z,27.63
2016-09-03T06:53:34.402Z,27.93
2016-09-03T06:54:34.410Z,27.88
2016-09-03T06:55:35.113Z,28
2016-09-03T06:56:34.425Z,28.24
2016-09-03T06:57:35.955Z,28.37
2016-09-03T06:58:34.432Z,28.46
2016-09-03T07:00:34.450Z,28.64
2016-09-03T07:02:36.188Z,28.78
2016-09-03T07:03:38.691Z,28.96
2016-09-03T07:04:34.480Z,29
2016-09-03T07:05:34.490Z,29.05
2016-09-03T07:06:34.512Z,29.16
2016-09-03T07:07:34.510Z,29.23
2016-09-03T07:09:38.578Z,29.26
2016-09-03T07:10:34.536Z,29.3
2016-09-03T07:11:37.489Z,29.33
2016-09-03T07:12:34.547Z,29.33
2016-09-03T07:13:34.572Z,29.34
2016-09-03T07:14:34.560Z,29.33
2016-09-03T07:15:34.593Z,29.34
2016-09-03T07:16:35.199Z,29.33
2016-09-03T07:17:34.616Z,29.3
2016-09-03T07:18:34.603Z,29.19
2016-09-03T07:19:34.615Z,29.09
2016-09-03T07:21:57.026Z,29.04
2016-09-03T07:22:37.673Z,29.08
2016-09-03T07:23:34.652Z,29.05
2016-09-03T07:24:34.652Z,28.89
2016-09-03T07:25:34.880Z,28.89
2016-09-03T07:26:34.664Z,28.9
2016-09-03T07:27:34.674Z,28.9
2016-09-03T07:28:40.953Z,28.8
2016-09-03T07:29:36.215Z,28.92
2016-09-03T07:30:34.713Z,28.89
2016-09-03T07:31:35.408Z,28.95
2016-09-03T07:32:34.719Z,28.83
2016-09-03T07:33:34.750Z,28.86
2016-09-03T07:34:34.739Z,28.85
2016-09-03T07:35:34.760Z,28.7
2016-09-03T07:36:34.755Z,28.7
2016-09-03T07:37:34.769Z,28.7
2016-09-03T07:38:35.867Z,28.66
2016-09-03T07:40:35.860Z,28.64
2016-09-03T07:41:35.106Z,28.68
2016-09-03T07:42:34.803Z,28.68
2016-09-03T07:43:34.813Z,28.62
2016-09-03T07:44:34.825Z,28.52
2016-09-03T07:45:34.891Z,28.51
2016-09-03T07:46:34.839Z,28.48
2016-09-03T07:47:36.123Z,28.44
2016-09-03T07:48:35.030Z,28.48
2016-09-03T07:49:34.867Z,28.4
2016-09-03T07:50:37.205Z,28.43
2016-09-03T07:51:35.393Z,28.27
2016-09-03T07:52:36.243Z,28.14
2016-09-03T07:53:34.934Z,27.96
2016-09-03T07:54:34.914Z,28.04
2016-09-03T07:55:34.924Z,28.06
2016-09-03T07:56:34.941Z,28.12
2016-09-03T07:57:34.937Z,28.11
2016-09-03T07:58:34.946Z,28.04
2016-09-03T07:59:34.960Z,28.04
2016-09-03T08:00:34.977Z,28.06
2016-09-03T08:01:34.974Z,28.15
2016-09-03T08:02:35.004Z,28.06
2016-09-03T08:03:34.993Z,28.11
2016-09-03T08:04:36.225Z,28.12
2016-09-03T08:05:50.231Z,28.18
2016-09-03T08:06:35.426Z,28.17
2016-09-03T08:07:35.640Z,28.27
2016-09-03T08:08:35.050Z,28.25
2016-09-03T08:09:35.097Z,28.31
2016-09-03T08:10:35.070Z,28.34
2016-09-03T08:11:35.077Z,28.39
2016-09-03T08:12:35.161Z,28.37
2016-09-03T08:13:35.835Z,28.39
2016-09-03T08:14:35.912Z,28.34
2016-09-03T08:15:35.554Z,28.31
2016-09-03T08:16:35.717Z,28.4
2016-09-03T08:17:35.727Z,28.39
2016-09-03T08:18:35.137Z,28.46
2016-09-03T08:19:35.147Z,28.36
2016-09-03T08:20:35.156Z,28.37
2016-09-03T08:21:35.262Z,28.37
2016-09-03T08:22:35.194Z,28.4
2016-09-03T08:23:35.185Z,28.36
2016-09-03T08:24:35.177Z,28.22
2016-09-03T08:25:35.200Z,28.19
2016-09-03T08:26:35.218Z,28.09
2016-09-03T08:27:35.215Z,28
2016-09-03T08:28:35.239Z,27.92
2016-09-03T08:29:35.220Z,27.82
2016-09-03T08:30:35.263Z,27.78
2016-09-03T08:31:35.246Z,27.74
2016-09-03T08:32:35.247Z,27.54
2016-09-03T08:33:35.260Z,27.32
2016-09-03T08:34:35.289Z,27.17
2016-09-03T08:35:35.293Z,26.89
2016-09-03T08:36:35.278Z,26.7
2016-09-03T08:37:35.286Z,26.65
2016-09-03T08:38:35.305Z,26.72
2016-09-03T08:39:35.323Z,26.72
2016-09-03T08:40:35.326Z,26.81
2016-09-03T08:41:35.331Z,26.85
2016-09-03T08:42:35.320Z,26.84
2016-09-03T08:43:35.327Z,26.88
2016-09-03T08:44:35.333Z,26.92
2016-09-03T08:45:35.491Z,26.94
2016-09-03T08:46:35.346Z,26.99
2016-09-03T08:47:35.363Z,26.97
2016-09-03T08:48:35.368Z,26.95
2016-09-03T08:49:35.366Z,26.97
2016-09-03T08:50:35.383Z,26.92
2016-09-03T08:51:35.390Z,26.97
2016-09-03T08:52:35.381Z,26.89
2016-09-03T08:53:35.399Z,26.85
2016-09-03T08:54:35.402Z,26.8
2016-09-03T08:55:35.414Z,26.81
2016-09-03T08:56:36.940Z,26.84
2016-09-03T08:57:36.127Z,26.84
2016-09-03T08:58:35.784Z,26.81
2016-09-03T08:59:35.446Z,26.84
2016-09-03T09:00:35.434Z,26.87
2016-09-03T09:01:35.436Z,26.87
2016-09-03T09:02:35.446Z,26.99
2016-09-03T09:03:35.459Z,26.99
2016-09-03T09:04:35.467Z,26.99
2016-09-03T09:06:36.950Z,26.92
2016-09-03T09:07:38.198Z,26.85
2016-09-03T09:08:37.807Z,26.82
2016-09-03T09:09:36.308Z,26.85
2016-09-03T09:10:35.511Z,26.97
2016-09-03T09:11:35.509Z,27
2016-09-03T09:12:35.525Z,27.04
2016-09-03T09:13:35.510Z,27
2016-09-03T09:14:35.525Z,27.03
2016-09-03T09:15:35.516Z,27.04
2016-09-03T09:16:35.526Z,26.97
2016-09-03T09:17:35.531Z,27.06
2016-09-03T09:18:35.560Z,27.02
2016-09-03T09:19:35.550Z,27
2016-09-03T09:20:35.554Z,27
2016-09-03T09:21:35.552Z,27
2016-09-03T09:22:37.122Z,27
2016-09-03T09:23:36.161Z,26.97
2016-09-03T09:24:35.849Z,26.97
2016-09-03T09:25:35.735Z,27.02
2016-09-03T09:26:35.588Z,27.03
2016-09-03T09:27:35.996Z,27.04
2016-09-03T09:28:36.158Z,27.06
2016-09-03T09:29:35.660Z,27.07
2016-09-03T09:30:35.610Z,27.1
2016-09-03T09:31:35.975Z,27.06
2016-09-03T09:32:35.793Z,27.1
2016-09-03T09:33:37.081Z,27
2016-09-03T09:34:50.545Z,27.09
2016-09-03T09:35:36.001Z,27.04
2016-09-03T09:36:35.658Z,27.17
2016-09-03T09:37:35.796Z,27.18
2016-09-03T09:38:35.699Z,27.13
2016-09-03T09:39:35.669Z,27.17
2016-09-03T09:40:35.671Z,27.29
2016-09-03T09:41:35.671Z,27.32
2016-09-03T09:42:35.685Z,27.44
2016-09-03T09:43:35.689Z,27.47
2016-09-03T09:44:35.692Z,27.51
2016-09-03T09:45:35.692Z,27.55
2016-09-03T09:46:35.692Z,27.47
2016-09-03T09:47:35.721Z,27.55
2016-09-03T09:48:35.725Z,27.5
2016-09-03T09:49:35.738Z,27.44
2016-09-03T09:50:35.720Z,27.49
2016-09-03T09:51:35.716Z,27.43
2016-09-03T09:52:35.746Z,27.4
2016-09-03T09:53:35.736Z,27.41
2016-09-03T09:54:35.746Z,27.37
2016-09-03T09:55:35.751Z,27.41
2016-09-03T09:56:35.759Z,27.43
2016-09-03T09:57:35.753Z,27.47
2016-09-03T09:58:35.785Z,27.54
2016-09-03T09:59:35.789Z,27.57
2016-09-03T10:00:35.792Z,27.57
2016-09-03T10:01:35.776Z,27.63
2016-09-03T10:02:35.791Z,27.72
2016-09-03T10:03:35.813Z,27.72
2016-09-03T10:04:35.799Z,27.7
2016-09-03T10:05:35.802Z,27.74
2016-09-03T10:06:35.825Z,27.74
2016-09-03T10:07:35.812Z,27.74
2016-09-03T10:08:35.833Z,27.69
2016-09-03T10:09:35.830Z,27.69
2016-09-03T10:10:35.842Z,27.78
2016-09-03T10:11:35.837Z,27.67
2016-09-03T10:12:35.844Z,27.7
2016-09-03T10:13:35.857Z,27.74
2016-09-03T10:14:36.411Z,27.72
2016-09-03T10:15:35.878Z,27.75
2016-09-03T10:16:35.871Z,27.72
2016-09-03T10:17:35.888Z,27.75
2016-09-03T10:18:35.882Z,27.7
2016-09-03T10:19:35.987Z,27.72
2016-09-03T10:20:36.268Z,27.69
2016-09-03T10:21:36.032Z,27.65
2016-09-03T10:22:35.896Z,27.74
2016-09-03T10:23:35.905Z,27.72
2016-09-03T10:24:36.419Z,27.75
2016-09-03T10:25:37.906Z,27.75
2016-09-03T10:26:37.984Z,27.77
2016-09-03T10:27:36.817Z,27.77
2016-09-03T10:28:35.949Z,27.69
2016-09-03T10:29:36.114Z,27.74
2016-09-03T10:30:36.031Z,27.74
2016-09-03T10:31:35.953Z,27.66
2016-09-03T10:32:35.962Z,27.62
2016-09-03T10:33:35.961Z,27.51
2016-09-03T10:34:35.982Z,27.51
2016-09-03T10:35:36.001Z,27.43
2016-09-03T10:36:35.985Z,27.46
2016-09-03T10:37:35.992Z,27.41
2016-09-03T10:38:36.007Z,27.28
2016-09-03T10:39:36.714Z,27.27
2016-09-03T10:40:37.064Z,27.29
2016-09-03T10:41:36.368Z,27.19
2016-09-03T10:43:37.530Z,27.22
2016-09-03T10:44:36.040Z,27.18
2016-09-03T10:45:36.240Z,27.13
2016-09-03T10:46:36.050Z,27.03
2016-09-03T10:47:36.042Z,27.03
2016-09-03T10:48:36.112Z,26.95
2016-09-03T10:49:36.057Z,26.95
2016-09-03T10:50:36.667Z,26.99
2016-09-03T10:51:36.131Z,26.91
2016-09-03T10:52:36.288Z,26.85
2016-09-03T10:53:36.884Z,26.8
2016-09-03T10:54:36.083Z,26.72
2016-09-03T10:55:36.961Z,26.81
2016-09-03T10:56:36.101Z,26.8
2016-09-03T10:57:36.107Z,26.84
2016-09-03T10:58:36.112Z,26.82
2016-09-03T10:59:36.117Z,26.81
2016-09-03T11:00:36.143Z,26.8
2016-09-03T11:01:36.132Z,26.77
2016-09-03T11:02:36.122Z,26.66
2016-09-03T11:03:36.133Z,26.65
2016-09-03T11:04:36.133Z,26.66
2016-09-03T11:05:36.139Z,26.66
2016-09-03T11:06:36.157Z,26.58
2016-09-03T11:07:36.160Z,26.62
2016-09-03T11:08:36.175Z,26.52
2016-09-03T11:09:36.161Z,26.44
2016-09-03T11:10:36.168Z,26.47
2016-09-03T11:11:36.162Z,26.35
2016-09-03T11:12:36.178Z,26.37
2016-09-03T11:14:37.712Z,26.26
2016-09-03T11:15:36.191Z,26.26
2016-09-03T11:16:36.206Z,26.21
2016-09-03T11:17:36.235Z,26.18
2016-09-03T11:18:36.222Z,26.26
2016-09-03T11:19:36.211Z,26.21
2016-09-03T11:20:36.225Z,26.17
2016-09-03T11:21:36.213Z,26.13
2016-09-03T11:22:36.230Z,26.1
2016-09-03T11:23:36.217Z,26.13
2016-09-03T11:24:36.220Z,26.06
2016-09-03T11:25:36.232Z,26.09
2016-09-03T11:26:36.235Z,26.05
2016-09-03T11:27:36.241Z,26.06
2016-09-03T11:28:36.247Z,26.01
2016-09-03T11:29:36.254Z,26.07
2016-09-03T11:30:36.262Z,26.01
2016-09-03T11:31:36.255Z,25.99
2016-09-03T11:32:36.254Z,25.91
2016-09-03T11:33:38.281Z,26.02
2016-09-03T11:34:37.436Z,26.05
2016-09-03T11:35:36.269Z,26.05
2016-09-03T11:36:36.276Z,26.06
2016-09-03T11:37:37.593Z,25.99
2016-09-03T11:38:36.294Z,26.1
2016-09-03T11:39:36.286Z,25.98
2016-09-03T11:40:36.289Z,26.01
2016-09-03T11:41:36.289Z,26.1
2016-09-03T11:42:36.330Z,26.02
2016-09-03T11:43:38.247Z,26.02
2016-09-03T11:44:38.355Z,26.06
2016-09-03T11:45:37.889Z,26.07
2016-09-03T11:46:36.523Z,26.1
2016-09-03T11:47:36.326Z,26.02
2016-09-03T11:48:36.328Z,26.07
2016-09-03T11:49:36.339Z,26.07
2016-09-03T11:50:36.336Z,26.07
2016-09-03T11:51:36.349Z,26.01
2016-09-03T11:52:36.348Z,26.09
2016-09-03T11:53:36.358Z,26.07
2016-09-03T11:54:36.342Z,26.05
2016-09-03T11:55:36.361Z,26.05
2016-09-03T11:56:36.348Z,26.12
2016-09-03T11:57:36.379Z,26.18
2016-09-03T11:58:36.354Z,26.1
2016-09-03T11:59:37.427Z,25.99
2016-09-03T12:00:37.364Z,26.1
2016-09-03T12:01:37.245Z,26.06
2016-09-03T12:02:36.369Z,25.97
2016-09-03T12:03:36.383Z,25.98
2016-09-03T12:04:36.399Z,25.87
2016-09-03T12:05:36.403Z,25.95
2016-09-03T12:06:36.394Z,25.88
2016-09-03T12:07:36.404Z,25.97
2016-09-03T12:08:36.435Z,25.98
2016-09-03T12:09:36.640Z,26.02
2016-09-03T12:10:51.573Z,26.02
2016-09-03T12:11:37.016Z,26.06
2016-09-03T12:12:36.683Z,26.07
2016-09-03T12:13:36.414Z,26.07
2016-09-03T12:14:36.564Z,26.1
2016-09-03T12:15:36.423Z,26.12
2016-09-03T12:16:36.438Z,26.2
2016-09-03T12:17:36.426Z,26.25
2016-09-03T12:18:36.439Z,26.28
2016-09-03T12:19:36.433Z,26.32
2016-09-03T12:20:36.466Z,26.35
2016-09-03T12:21:36.446Z,26.39
2016-09-03T12:22:36.456Z,26.43
2016-09-03T12:23:36.450Z,26.47
2016-09-03T12:24:36.448Z,26.52
2016-09-03T12:25:36.457Z,26.55
2016-09-03T12:26:36.463Z,26.54
2016-09-03T12:27:36.460Z,26.63
2016-09-03T12:28:36.482Z,26.7
2016-09-03T12:29:36.498Z,26.69
2016-09-03T12:30:36.495Z,26.8
2016-09-03T12:31:36.477Z,26.75
2016-09-03T12:32:36.483Z,26.82
2016-09-03T12:33:36.501Z,26.77
2016-09-03T12:34:36.501Z,26.82
2016-09-03T12:35:36.490Z,26.91
2016-09-03T12:36:36.503Z,26.85
2016-09-03T12:37:36.520Z,26.91
2016-09-03T12:38:36.515Z,26.89
2016-09-03T12:39:36.522Z,26.94
2016-09-03T12:40:36.518Z,27.02
2016-09-03T12:41:36.529Z,26.99
2016-09-03T12:42:36.521Z,26.97
2016-09-03T12:43:36.527Z,27.04
2016-09-03T12:44:36.557Z,26.99
2016-09-03T12:45:37.296Z,27
2016-09-03T12:46:36.541Z,27.14
2016-09-03T12:47:36.550Z,27.13
2016-09-03T12:48:36.550Z,27.19
2016-09-03T12:49:36.585Z,27.28
2016-09-03T12:50:36.564Z,27.27
2016-09-03T12:51:37.474Z,27.41
2016-09-03T12:52:39.462Z,27.37
2016-09-03T12:53:36.577Z,27.47
2016-09-03T12:54:36.698Z,27.54
2016-09-03T12:55:36.589Z,27.59
2016-09-03T12:56:36.600Z,27.72
2016-09-03T12:57:36.643Z,27.77
2016-09-03T12:58:36.624Z,27.78
2016-09-03T12:59:36.609Z,27.88
2016-09-03T13:00:39.855Z,27.88
2016-09-03T13:01:38.343Z,27.88
2016-09-03T13:02:38.864Z,27.92
2016-09-03T13:03:36.630Z,28.03
2016-09-03T13:04:37.429Z,28.03
2016-09-03T13:05:36.646Z,27.97
2016-09-03T13:06:36.662Z,28.03
2016-09-03T13:07:36.642Z,28.04
2016-09-03T13:08:36.659Z,28.17
2016-09-03T13:09:36.656Z,28.12
2016-09-03T13:10:36.663Z,28.03